createdAt,value
2022-10-17T00:00:53.184Z,9.13
2022-10-17T00:03:20.671Z,6.10
2022-10-17T00:05:49.135Z,6.15
2022-10-17T00:08:18.173Z,8.27
2022-10-17T00:10:45.848Z,13.57
2022-10-17T00:13:13.567Z,14.85
2022-10-17T00:15:45.056Z,13.57
2022-10-17T00:18:12.544Z,16.92
2022-10-17T00:20:39.943Z,11.82
2022-10-17T00:23:07.344Z,11.70
2022-10-17T00:25:34.795Z,16.65
2022-10-17T00:28:02.179Z,10.65
2022-10-17T00:30:29.792Z,8.35
2022-10-17T00:32:57.151Z,11.50
2022-10-17T00:35:24.609Z,9.05
2022-10-17T00:37:52.007Z,9.98
2022-10-17T00:40:19.624Z,7.03
2022-10-17T00:42:47.074Z,7.82
2022-10-17T00:45:25.159Z,9.52
2022-10-17T00:48:08.603Z,10.30
2022-10-17T00:50:38.779Z,9.85
2022-10-17T00:53:09.567Z,10.53
2022-10-17T00:55:48.437Z,8.50
2022-10-17T00:58:16.685Z,12.20
2022-10-17T01:00:45.357Z,11.85
2022-10-17T01:03:12.884Z,11.18
2022-10-17T01:05:42.258Z,9.50
2022-10-17T01:08:10.376Z,8.30
2022-10-17T01:11:10.248Z,9.00
2022-10-17T01:14:11.503Z,7.38
2022-10-17T01:19:46.744Z,7.75
2022-10-17T01:22:36.929Z,6.05
2022-10-17T01:25:42.375Z,5.32
2022-10-17T01:28:19.718Z,7.90
2022-10-17T01:31:08.111Z,5.10
2022-10-17T01:34:01.124Z,6.07
2022-10-17T01:36:48.202Z,10.68
2022-10-17T01:39:36.853Z,7.55
2022-10-17T01:42:19.960Z,5.78
2022-10-17T01:44:55.819Z,7.55
2022-10-17T01:47:28.443Z,8.60
2022-10-17T01:50:01.476Z,4.53
2022-10-17T01:52:38.642Z,5.65
2022-10-17T01:55:31.907Z,6.75
2022-10-17T01:58:12.592Z,9.27
2022-10-17T02:00:42.862Z,8.32
2022-10-17T02:03:13.593Z,7.22
2022-10-17T02:05:42.894Z,9.82
2022-10-17T02:08:10.448Z,11.88
2022-10-17T02:10:52.236Z,7.28
2022-10-17T02:13:39.100Z,10.23
2022-10-17T02:16:29.520Z,7.80
2022-10-17T02:19:18.084Z,9.65
2022-10-17T02:21:50.184Z,7.43
2022-10-17T02:24:45.777Z,5.72
2022-10-17T02:27:32.348Z,8.35
2022-10-17T02:30:14.698Z,5.38
2022-10-17T02:32:54.924Z,6.40
2022-10-17T02:35:24.346Z,6.77
2022-10-17T02:37:52.782Z,10.43
2022-10-17T02:40:23.039Z,6.88
2022-10-17T02:42:53.089Z,7.22
2022-10-17T02:45:21.908Z,5.43
2022-10-17T02:48:00.938Z,5.32
2022-10-17T02:50:52.751Z,6.25
2022-10-17T02:53:55.851Z,6.05
2022-10-17T02:56:26.682Z,10.73
2022-10-17T02:58:58.062Z,7.30
2022-10-17T03:01:26.500Z,7.40
2022-10-17T03:04:06.324Z,6.68
2022-10-17T03:06:33.746Z,6.93
2022-10-17T03:09:01.137Z,8.55
2022-10-17T03:11:28.550Z,8.25
2022-10-17T03:13:56.386Z,6.18
2022-10-17T03:16:23.757Z,10.15
2022-10-17T03:18:51.169Z,8.35
2022-10-17T03:21:18.572Z,7.05
2022-10-17T03:23:46.103Z,7.78
2022-10-17T03:26:13.905Z,9.30
2022-10-17T03:28:41.341Z,6.95
2022-10-17T03:31:11.101Z,7.55
2022-10-17T03:33:38.700Z,9.82
2022-10-17T03:36:08.127Z,6.68
2022-10-17T03:38:36.059Z,5.22
2022-10-17T03:41:04.605Z,5.90
2022-10-17T03:43:32.168Z,5.40
2022-10-17T03:46:01.197Z,7.43
2022-10-17T03:48:31.086Z,6.55
2022-10-17T03:51:04.039Z,5.90
2022-10-17T03:53:31.529Z,8.00
2022-10-17T03:56:16.405Z,8.13
2022-10-17T03:58:44.399Z,9.63
2022-10-17T04:01:14.520Z,13.80
2022-10-17T04:03:42.739Z,3.73
2022-10-17T04:06:12.880Z,5.72
2022-10-17T04:08:40.425Z,4.07
2022-10-17T04:11:09.447Z,8.02
2022-10-17T04:13:37.111Z,6.20
2022-10-17T04:16:07.142Z,5.53
2022-10-17T04:18:35.029Z,9.73
2022-10-17T04:21:03.763Z,5.45
2022-10-17T04:23:31.177Z,8.15
2022-10-17T04:26:00.079Z,12.63
2022-10-17T04:28:28.513Z,11.45
2022-10-17T04:31:01.219Z,9.38
2022-10-17T04:33:28.763Z,6.93
2022-10-17T04:36:07.434Z,9.43
2022-10-17T04:38:35.179Z,9.13
2022-10-17T04:41:05.921Z,6.88
2022-10-17T04:43:37.469Z,14.80
2022-10-17T04:46:07.845Z,19.05
2022-10-17T04:48:35.474Z,20.13
2022-10-17T04:51:06.243Z,31.75
2022-10-17T04:53:36.701Z,41.15
2022-10-17T04:56:18.924Z,14.07
2022-10-17T04:58:46.905Z,36.95
2022-10-17T05:01:18.897Z,14.15
2022-10-17T05:03:47.196Z,8.13
2022-10-17T05:06:17.240Z,6.93
2022-10-17T05:08:45.210Z,13.30
2022-10-17T05:11:27.743Z,9.02
2022-10-17T05:14:01.078Z,6.07
2022-10-17T05:16:29.348Z,6.45
2022-10-17T05:18:58.402Z,10.65
2022-10-17T05:21:28.156Z,6.00
2022-10-17T05:23:55.840Z,15.60
2022-10-17T05:26:24.141Z,11.75
2022-10-17T05:28:52.634Z,11.57
2022-10-17T05:31:20.568Z,11.00
2022-10-17T05:33:48.197Z,8.02
2022-10-17T05:36:15.647Z,12.65
2022-10-17T05:38:43.092Z,14.35
2022-10-17T05:41:11.109Z,8.52
2022-10-17T05:43:38.559Z,6.35
2022-10-17T05:46:06.765Z,9.18
2022-10-17T05:48:34.909Z,5.65
2022-10-17T05:51:05.726Z,9.80
2022-10-17T05:53:39.116Z,15.60
2022-10-17T05:56:08.614Z,23.70
2022-10-17T05:58:49.833Z,12.23
2022-10-17T06:01:18.847Z,9.82
2022-10-17T06:03:46.323Z,6.20
2022-10-17T06:06:15.092Z,8.18
2022-10-17T06:08:43.217Z,6.60
2022-10-17T06:11:11.471Z,5.80
2022-10-17T06:13:39.815Z,9.77
2022-10-17T06:16:07.462Z,4.57
2022-10-17T06:18:35.223Z,7.82
2022-10-17T06:21:04.789Z,6.25
2022-10-17T06:23:32.341Z,4.90
2022-10-17T06:26:03.758Z,8.55
2022-10-17T06:28:31.896Z,6.25
2022-10-17T06:30:59.383Z,7.38
2022-10-17T06:33:26.795Z,10.65
2022-10-17T06:35:55.851Z,10.07
2022-10-17T06:38:23.881Z,11.52
2022-10-17T06:40:51.394Z,7.88
2022-10-17T06:43:18.855Z,7.35
2022-10-17T06:45:47.686Z,8.88
2022-10-17T06:48:15.294Z,7.28
2022-10-17T06:50:42.695Z,7.80
2022-10-17T06:53:10.085Z,5.38
2022-10-17T06:55:37.481Z,6.20
2022-10-17T06:58:04.881Z,5.10
2022-10-17T07:00:32.293Z,7.75
2022-10-17T07:02:59.730Z,6.30
2022-10-17T07:05:27.138Z,6.28
2022-10-17T07:07:54.529Z,7.65
2022-10-17T07:10:21.942Z,8.75
2022-10-17T07:12:49.374Z,8.32
2022-10-17T07:15:16.820Z,7.28
2022-10-17T07:17:44.269Z,7.38
2022-10-17T07:20:11.880Z,5.75
2022-10-17T07:22:39.377Z,6.15
2022-10-17T07:25:07.478Z,6.28
2022-10-17T07:27:34.865Z,10.75
2022-10-17T07:30:02.280Z,8.63
2022-10-17T07:32:29.682Z,6.18
2022-10-17T07:34:57.121Z,7.28
2022-10-17T07:37:24.540Z,7.82
2022-10-17T07:39:51.882Z,9.65
2022-10-17T07:42:19.327Z,6.05
2022-10-17T07:44:47.633Z,7.70
2022-10-17T07:47:15.046Z,5.80
2022-10-17T07:49:44.266Z,5.35
2022-10-17T07:52:15.706Z,10.07
2022-10-17T07:54:43.751Z,5.93
2022-10-17T07:57:11.118Z,6.25
2022-10-17T07:59:38.717Z,6.85
2022-10-17T08:02:08.258Z,6.13
2022-10-17T08:04:36.635Z,7.93
2022-10-17T08:07:19.624Z,7.07
2022-10-17T08:09:48.285Z,9.68
2022-10-17T08:12:16.207Z,7.75
2022-10-17T08:14:43.972Z,6.78
2022-10-17T08:17:11.369Z,7.60
2022-10-17T08:19:40.580Z,7.25
2022-10-17T08:22:08.610Z,8.85
2022-10-17T08:24:36.139Z,18.05
2022-10-17T08:27:04.975Z,8.63
2022-10-17T08:29:32.995Z,9.43
2022-10-17T08:32:01.923Z,6.93
2022-10-17T08:34:30.439Z,8.70
2022-10-17T08:36:57.920Z,11.25
2022-10-17T08:39:25.324Z,7.40
2022-10-17T08:42:24.506Z,8.25
2022-10-17T08:45:17.100Z,10.45
2022-10-17T08:47:47.596Z,11.65
2022-10-17T08:50:39.424Z,12.63
2022-10-17T08:53:27.078Z,12.27
2022-10-17T08:55:55.551Z,14.00
2022-10-17T08:58:27.967Z,13.70
2022-10-17T09:01:18.780Z,8.65
2022-10-17T09:04:04.139Z,12.32
2022-10-17T09:06:52.277Z,8.27
2022-10-17T09:09:59.377Z,6.82
2022-10-17T09:12:35.310Z,9.88
2022-10-17T09:15:36.599Z,7.53
2022-10-17T09:18:09.986Z,8.98
2022-10-17T09:20:52.535Z,8.57
2022-10-17T09:23:31.129Z,6.78
2022-10-17T09:26:00.591Z,7.35
2022-10-17T09:28:37.181Z,7.30
2022-10-17T09:31:22.692Z,8.77
2022-10-17T09:33:54.566Z,7.15
2022-10-17T09:36:33.777Z,7.53
2022-10-17T09:39:11.530Z,13.10
2022-10-17T09:41:46.444Z,11.95
2022-10-17T09:44:33.255Z,10.90
2022-10-17T09:47:34.454Z,9.48
2022-10-17T09:50:02.330Z,10.75
2022-10-17T09:52:42.158Z,8.18
2022-10-17T09:55:25.428Z,8.55
2022-10-17T09:58:04.694Z,7.70
2022-10-17T10:00:35.207Z,6.93
2022-10-17T10:03:25.791Z,8.60
2022-10-17T10:06:13.260Z,8.93
2022-10-17T10:08:52.786Z,12.15
2022-10-17T10:11:47.243Z,8.50
2022-10-17T10:14:22.452Z,7.57
2022-10-17T10:16:53.803Z,8.15
2022-10-17T10:19:26.989Z,7.85
2022-10-17T10:22:02.697Z,8.68
2022-10-17T10:24:31.361Z,6.72
2022-10-17T10:27:04.122Z,8.50
2022-10-17T10:29:41.311Z,8.98
2022-10-17T10:32:33.108Z,7.80
2022-10-17T10:35:32.211Z,7.68
2022-10-17T10:38:02.212Z,9.27
2022-10-17T10:40:58.306Z,6.40
2022-10-17T10:43:34.643Z,6.32
2022-10-17T10:46:16.143Z,6.55
2022-10-17T10:48:52.228Z,9.98
2022-10-17T10:51:44.494Z,10.00
2022-10-17T10:54:16.349Z,8.30
2022-10-17T10:56:53.322Z,11.27
2022-10-17T10:59:43.111Z,8.68
2022-10-17T11:02:23.980Z,9.48
2022-10-17T11:04:59.285Z,6.90
2022-10-17T11:08:13.079Z,8.80
2022-10-17T11:11:04.803Z,6.80
2022-10-17T11:13:41.233Z,7.15
2022-10-17T11:16:19.939Z,7.28
2022-10-17T11:19:19.499Z,5.95
2022-10-17T11:22:16.875Z,6.93
2022-10-17T11:25:00.901Z,6.43
2022-10-17T11:27:30.219Z,6.57
2022-10-17T11:29:58.631Z,6.60
2022-10-17T11:32:44.899Z,8.63
2022-10-17T11:35:29.305Z,6.03
2022-10-17T11:38:35.717Z,6.30
2022-10-17T11:41:04.982Z,7.43
2022-10-17T11:43:50.562Z,4.28
2022-10-17T11:46:25.174Z,5.75
2022-10-17T11:49:01.569Z,7.57
2022-10-17T11:54:26.834Z,5.82
2022-10-17T11:57:21.556Z,11.43
2022-10-17T12:00:11.933Z,6.90
2022-10-17T12:03:05.300Z,5.00
2022-10-17T12:05:44.914Z,6.15
2022-10-17T12:08:37.668Z,8.35
2022-10-17T12:11:27.037Z,4.32
2022-10-17T12:13:56.877Z,4.18
2022-10-17T12:16:36.954Z,5.45
2022-10-17T12:19:06.565Z,5.70
2022-10-17T12:21:55.968Z,8.23
2022-10-17T12:24:44.136Z,4.55
2022-10-17T12:27:37.845Z,10.10
2022-10-17T12:30:25.579Z,5.68
2022-10-17T12:33:14.638Z,5.60
2022-10-17T12:35:42.051Z,5.25
2022-10-17T12:38:18.033Z,6.78
2022-10-17T12:40:49.058Z,5.03
2022-10-17T12:43:16.573Z,11.68
2022-10-17T12:45:52.828Z,9.55
2022-10-17T12:48:38.598Z,4.80
2022-10-17T12:54:08.653Z,5.00
2022-10-17T12:56:39.232Z,8.45
2022-10-17T12:59:19.720Z,6.78
2022-10-17T13:01:51.738Z,5.47
2022-10-17T13:04:19.686Z,6.15
2022-10-17T13:06:53.593Z,5.05
2022-10-17T13:09:30.863Z,6.05
2022-10-17T13:12:02.972Z,5.10
2022-10-17T13:14:32.806Z,5.88
2022-10-17T13:17:02.604Z,5.78
2022-10-17T13:19:42.208Z,6.50
2022-10-17T13:22:33.351Z,5.65
2022-10-17T13:25:13.485Z,5.95
2022-10-17T13:27:40.884Z,4.03
2022-10-17T13:30:31.096Z,5.57
2022-10-17T13:33:01.239Z,5.10
2022-10-17T13:38:32.814Z,5.57
2022-10-17T13:41:23.261Z,5.93
2022-10-17T13:43:51.188Z,6.60
2022-10-17T13:46:44.123Z,5.10
2022-10-17T13:49:20.068Z,6.82
2022-10-17T13:51:51.549Z,6.07
2022-10-17T13:54:43.018Z,9.02
2022-10-17T13:57:31.130Z,7.07
2022-10-17T14:00:10.006Z,8.07
2022-10-17T14:02:42.027Z,9.53
2022-10-17T14:05:20.980Z,7.88
2022-10-17T14:08:14.499Z,7.25
2022-10-17T14:10:45.502Z,8.73
2022-10-17T14:13:25.890Z,7.90
2022-10-17T14:15:55.332Z,14.75
2022-10-17T14:18:33.321Z,15.18
2022-10-17T14:21:37.236Z,17.05
2022-10-17T14:24:29.876Z,14.25
2022-10-17T14:26:59.754Z,14.10
2022-10-17T14:29:51.358Z,15.95
2022-10-17T14:32:19.904Z,11.73
2022-10-17T14:34:52.288Z,12.15
2022-10-17T14:37:32.034Z,10.32
2022-10-17T14:40:01.678Z,11.25
2022-10-17T14:42:29.296Z,12.93
2022-10-17T14:45:04.836Z,26.15
2022-10-17T14:47:43.540Z,34.63
2022-10-17T14:50:11.640Z,34.53
2022-10-17T14:52:39.963Z,42.78
2022-10-17T14:55:25.460Z,42.08
2022-10-17T14:57:52.853Z,36.80
2022-10-17T15:00:22.137Z,31.35
2022-10-17T15:02:50.694Z,29.63
2022-10-17T15:05:19.575Z,54.00
2022-10-17T15:07:47.320Z,39.55
2022-10-17T15:10:36.736Z,35.67
2022-10-17T15:15:52.610Z,104.40
2022-10-17T15:18:20.080Z,101.75
2022-10-17T15:20:49.598Z,76.93
2022-10-17T15:23:22.810Z,71.95
2022-10-17T15:25:50.283Z,48.95
2022-10-17T15:28:17.670Z,36.88
2022-10-17T15:30:45.296Z,47.90
2022-10-17T15:33:12.758Z,60.83
2022-10-17T15:35:40.188Z,48.80
2022-10-17T15:38:08.778Z,44.75
2022-10-17T15:40:36.289Z,46.97
2022-10-17T15:43:03.666Z,43.17
2022-10-17T15:45:33.384Z,41.58
2022-10-17T15:48:06.240Z,51.08
2022-10-17T15:50:33.679Z,49.63
2022-10-17T15:53:01.124Z,42.10
2022-10-17T15:55:28.559Z,30.00
2022-10-17T15:57:56.008Z,31.52
2022-10-17T16:00:24.455Z,39.10
2022-10-17T16:02:51.919Z,51.03
2022-10-17T16:05:25.631Z,47.33
2022-10-17T16:07:54.137Z,53.35
2022-10-17T16:10:22.928Z,58.15
2022-10-17T16:12:50.714Z,63.35
2022-10-17T16:15:25.153Z,50.67
2022-10-17T16:17:55.638Z,49.38
2022-10-17T16:20:24.387Z,64.43
2022-10-17T16:22:53.133Z,47.72
2022-10-17T16:25:24.968Z,35.03
2022-10-17T16:27:54.935Z,22.60
2022-10-17T16:30:24.405Z,25.88
2022-10-17T16:32:52.819Z,23.90
2022-10-17T16:35:30.647Z,26.42
2022-10-17T16:38:00.697Z,26.95
2022-10-17T16:40:28.174Z,23.25
2022-10-17T16:42:55.627Z,22.95
2022-10-17T16:45:23.450Z,16.83
2022-10-17T16:47:51.027Z,18.83
2022-10-17T16:50:18.677Z,17.20
2022-10-17T16:52:46.068Z,22.65
2022-10-17T16:55:13.561Z,14.80
2022-10-17T17:02:40.342Z,15.68
2022-10-17T17:05:08.514Z,18.55
2022-10-17T17:07:36.075Z,22.05
2022-10-17T17:10:03.955Z,20.05
2022-10-17T17:12:36.331Z,21.77
2022-10-17T17:15:04.152Z,15.65
2022-10-17T17:17:48.695Z,19.27
2022-10-17T17:20:17.795Z,16.90
2022-10-17T17:22:45.267Z,22.58
2022-10-17T17:25:12.702Z,23.85
2022-10-17T17:27:40.089Z,20.00
2022-10-17T17:30:08.080Z,18.45
2022-10-17T17:32:35.544Z,24.98
2022-10-17T17:35:02.947Z,21.67
2022-10-17T17:37:30.642Z,18.38
2022-10-17T17:39:58.312Z,21.23
2022-10-17T17:42:25.794Z,22.35
2022-10-17T17:44:53.290Z,15.43
2022-10-17T17:47:20.752Z,22.50
2022-10-17T17:49:48.370Z,16.83
2022-10-17T17:52:15.836Z,21.45
2022-10-17T17:54:44.748Z,18.35
2022-10-17T17:57:12.586Z,21.73
2022-10-17T17:59:41.291Z,19.98
2022-10-17T18:02:10.527Z,14.27
2022-10-17T18:04:38.107Z,15.80
2022-10-17T18:07:05.547Z,19.05
2022-10-17T18:09:32.991Z,20.45
2022-10-17T18:12:00.461Z,16.42
2022-10-17T18:14:28.003Z,15.82
2022-10-17T18:16:55.495Z,19.60
2022-10-17T18:19:23.944Z,18.70
2022-10-17T18:21:51.413Z,14.70
2022-10-17T18:24:18.984Z,17.75
2022-10-17T18:26:46.421Z,18.98
2022-10-17T18:29:13.853Z,19.10
2022-10-17T18:31:41.392Z,22.02
2022-10-17T18:34:08.878Z,20.23
2022-10-17T18:36:37.855Z,20.80
2022-10-17T18:39:05.932Z,21.33
2022-10-17T18:41:34.110Z,23.25
2022-10-17T18:44:03.158Z,21.67
2022-10-17T18:46:36.347Z,18.73
2022-10-17T18:49:04.130Z,14.07
2022-10-17T18:51:31.613Z,22.17
2022-10-17T18:53:59.150Z,17.60
2022-10-17T18:56:27.130Z,22.23
2022-10-17T18:58:55.685Z,15.23
2022-10-17T19:01:26.026Z,17.48
2022-10-17T19:03:56.193Z,21.83
2022-10-17T19:06:29.975Z,20.33
2022-10-17T19:08:59.228Z,18.70
2022-10-17T19:11:28.181Z,19.42
2022-10-17T19:14:00.827Z,23.58
2022-10-17T19:16:35.063Z,15.48
2022-10-17T19:19:06.025Z,17.33
2022-10-17T19:21:34.415Z,15.00
2022-10-17T19:24:05.877Z,18.70
2022-10-17T19:26:35.435Z,17.58
2022-10-17T19:29:03.671Z,17.58
2022-10-17T19:31:32.606Z,18.38
2022-10-17T19:34:00.490Z,19.38
2022-10-17T19:36:33.241Z,20.08
2022-10-17T19:39:23.383Z,19.42
2022-10-17T19:41:50.991Z,18.15
2022-10-17T19:44:18.677Z,19.17
2022-10-17T19:46:47.133Z,15.75
2022-10-17T19:49:15.166Z,18.48
2022-10-17T19:51:42.598Z,21.42
2022-10-17T19:54:10.853Z,18.20
2022-10-17T19:56:38.844Z,19.10
2022-10-17T19:59:07.337Z,19.92
2022-10-17T20:01:39.077Z,24.08
2022-10-17T20:04:08.690Z,17.77
2022-10-17T20:06:36.378Z,20.08
2022-10-17T20:09:05.345Z,19.02
2022-10-17T20:11:33.138Z,17.98
2022-10-17T20:14:02.008Z,17.10
2022-10-17T20:16:32.561Z,17.70
2022-10-17T20:19:08.544Z,19.38
2022-10-17T20:21:37.352Z,15.75
2022-10-17T20:24:06.696Z,17.05
2022-10-17T20:26:38.746Z,15.82
2022-10-17T20:29:12.884Z,18.20
2022-10-17T20:31:42.324Z,17.20
2022-10-17T20:34:13.333Z,18.90
2022-10-17T20:36:41.322Z,19.75
2022-10-17T20:39:10.188Z,17.70
2022-10-17T20:41:37.725Z,17.55
2022-10-17T20:44:06.939Z,18.73
2022-10-17T20:46:37.628Z,15.55
2022-10-17T20:49:07.402Z,19.58
2022-10-17T20:51:35.647Z,13.80
2022-10-17T20:54:03.640Z,17.63
2022-10-17T20:56:32.466Z,16.98
2022-10-17T20:59:02.481Z,18.27
2022-10-17T21:01:31.549Z,13.80
2022-10-17T21:04:06.325Z,15.32
2022-10-17T21:06:43.597Z,18.15
2022-10-17T21:09:11.060Z,14.80
2022-10-17T21:11:39.419Z,15.93
2022-10-17T21:14:08.155Z,15.40
2022-10-17T21:16:39.267Z,15.30
2022-10-17T21:21:36.427Z,14.50
2022-10-17T21:24:09.107Z,13.30
2022-10-17T21:26:38.003Z,12.13
2022-10-17T21:29:06.721Z,13.05
2022-10-17T21:31:36.779Z,16.90
2022-10-17T21:34:15.691Z,13.23
2022-10-17T21:36:43.527Z,18.42
2022-10-17T21:39:12.421Z,17.45
2022-10-17T21:41:40.078Z,15.20
2022-10-17T21:44:13.256Z,16.92
2022-10-17T21:46:41.092Z,18.63
2022-10-17T21:49:12.028Z,17.45
2022-10-17T21:51:40.010Z,20.58
2022-10-17T21:54:07.577Z,17.42
2022-10-17T21:56:36.479Z,20.00
2022-10-17T21:59:05.094Z,17.55
2022-10-17T22:01:41.721Z,25.55
2022-10-17T22:04:12.628Z,16.35
2022-10-17T22:06:41.620Z,15.88
2022-10-17T22:09:15.429Z,20.02
2022-10-17T22:11:46.092Z,15.75
2022-10-17T22:14:16.178Z,18.15
2022-10-17T22:16:45.440Z,13.43
2022-10-17T22:19:15.367Z,15.48
2022-10-17T22:21:42.842Z,17.50
2022-10-17T22:24:12.619Z,16.15
2022-10-17T22:26:40.500Z,13.57
2022-10-17T22:29:08.882Z,17.85
2022-10-17T22:31:37.176Z,20.27
2022-10-17T22:34:05.821Z,15.48
2022-10-17T22:36:34.010Z,16.13
2022-10-17T22:39:01.501Z,17.10
2022-10-17T22:41:29.243Z,17.98
2022-10-17T22:43:56.648Z,13.80
2022-10-17T22:46:24.158Z,13.98
2022-10-17T22:48:51.613Z,14.25
2022-10-17T22:51:19.318Z,14.93
2022-10-17T22:53:46.776Z,13.63
2022-10-17T22:56:17.273Z,16.73
2022-10-17T22:58:45.294Z,16.95
2022-10-17T23:01:18.792Z,13.88
2022-10-17T23:03:46.545Z,18.25
2022-10-17T23:06:14.399Z,16.33
2022-10-17T23:08:42.640Z,13.50
2022-10-17T23:11:10.965Z,17.60
2022-10-17T23:13:39.860Z,17.08
2022-10-17T23:16:08.022Z,15.93
2022-10-17T23:18:35.666Z,22.77
2022-10-17T23:21:03.237Z,16.67
2022-10-17T23:23:30.615Z,15.48
2022-10-17T23:26:05.480Z,17.02
2022-10-17T23:28:35.693Z,17.27
2022-10-17T23:31:18.691Z,18.10
2022-10-17T23:33:48.463Z,18.40
2022-10-17T23:36:18.756Z,19.48
2022-10-17T23:38:47.032Z,17.40
2022-10-17T23:41:14.807Z,24.98
2022-10-17T23:43:42.315Z,20.17
2022-10-17T23:46:10.172Z,15.98
2022-10-17T23:48:38.632Z,13.40
2022-10-17T23:51:07.339Z,15.50
2022-10-17T23:53:35.798Z,17.40
2022-10-17T23:56:04.519Z,13.88
2022-10-17T23:58:31.998Z,16.13
